Time;durP1;ratioP1;P1;durP2;ratioP2;P2;SDS_P1;SDS_P2;PMS_P1;PMS_P2;Temp;Humidity;BMP_temperature;BMP_pressure;BME280_temperature;BME280_humidity;BME280_pressure;Samples;Min_cycle;Max_cycle;Signal;HPM_P1;HPM_P2
2020/12/18 00:02:39;;;;;;;1.70;0.90;;;;;;;11.04;88.55;99520.78;5074583;28;20114;-53
2020/12/18 00:05:26;;;;;;;2.42;1.20;;;;;;;11.07;88.41;99535.88;5076475;28;20123;-54
2020/12/18 00:08:12;;;;;;;2.22;0.70;;;;;;;11.08;88.28;99535.47;5074389;28;20051;-51
2020/12/18 00:10:59;;;;;;;1.25;1.10;;;;;;;11.10;88.19;99535.88;5062506;28;20047;-49
2020/12/18 00:13:46;;;;;;;1.40;0.77;;;;;;;11.11;88.14;99540.28;5094594;28;20058;-51
2020/12/18 00:16:34;;;;;;;0.50;0.50;;;;;;;11.12;87.77;99544.63;5074674;28;20171;-53
2020/12/18 00:19:21;;;;;;;1.40;0.77;;;;;;;11.16;87.80;99562.09;5072332;28;20067;-51
2020/12/18 00:22:09;;;;;;;3.35;0.75;;;;;;;11.16;87.67;99553.78;5076043;28;20040;-51
2020/12/18 00:24:55;;;;;;;9.10;2.63;;;;;;;11.15;87.66;99554.94;5094245;28;20048;-52
2020/12/18 00:27:44;;;;;;;8.75;2.25;;;;;;;11.16;87.76;99562.09;5091977;28;20042;-51
2020/12/18 00:30:31;;;;;;;4.82;1.55;;;;;;;11.13;87.70;99562.84;5094854;28;20145;-52
2020/12/18 00:33:18;;;;;;;6.45;2.70;;;;;;;11.06;87.27;99561.97;5059041;28;20486;-52
2020/12/18 00:36:05;;;;;;;1.75;1.05;;;;;;;10.97;87.43;99546.44;5065969;28;20117;-50
2020/12/18 00:38:54;;;;;;;4.05;1.50;;;;;;;10.94;87.36;99543.59;5061987;28;20478;-52
2020/12/18 00:41:40;;;;;;;1.00;0.90;;;;;;;10.87;87.38;99526.91;5073767;28;20121;-53
2020/12/18 00:44:27;;;;;;;0.73;0.70;;;;;;;10.82;87.30;99549.41;5077903;28;20122;-55
2020/12/18 00:47:13;;;;;;;1.30;0.52;;;;;;;10.77;87.17;99552.50;5094839;28;20056;-53
2020/12/18 00:50:00;;;;;;;1.95;0.90;;;;;;;10.73;87.36;99548.88;5055136;28;20101;-55
2020/12/18 00:52:47;;;;;;;1.50;0.90;;;;;;;10.69;87.41;99562.69;5057923;28;20190;-53
2020/12/18 00:55:33;;;;;;;1.80;0.60;;;;;;;10.66;87.38;99565.38;5087572;28;20123;-54
2020/12/18 00:58:20;;;;;;;0.98;0.63;;;;;;;10.65;87.28;99555.47;5090152;28;20044;-54
2020/12/18 01:01:06;;;;;;;0.88;0.57;;;;;;;10.64;87.34;99573.28;5093386;28;20055;-54
2020/12/18 01:03:53;;;;;;;1.15;0.40;;;;;;;10.62;87.33;99576.41;5080818;28;20054;-50
2020/12/18 01:06:39;;;;;;;0.75;0.75;;;;;;;10.63;87.35;99568.91;5072371;28;20405;-53
2020/12/18 01:09:26;;;;;;;0.63;0.63;;;;;;;10.64;87.13;99557.47;5080695;28;20524;-53
2020/12/18 01:12:13;;;;;;;2.47;1.58;;;;;;;10.65;87.55;99552.72;5079601;28;20036;-53
2020/12/18 01:14:59;;;;;;;0.73;0.50;;;;;;;10.63;87.08;99558.63;5084244;28;20477;-52
2020/12/18 01:17:46;;;;;;;4.45;0.50;;;;;;;10.64;86.98;99554.72;5074028;28;20059;-54
2020/12/18 01:20:32;;;;;;;0.80;0.60;;;;;;;10.60;86.75;99555.81;5071346;28;20163;-51
2020/12/18 01:23:19;;;;;;;0.73;0.60;;;;;;;10.58;86.89;99541.56;5070474;28;20155;-50
2020/12/18 01:26:09;;;;;;;1.55;0.63;;;;;;;10.55;86.86;99537.56;5063313;28;20135;-54
2020/12/18 01:28:56;;;;;;;0.40;0.30;;;;;;;10.53;86.83;99528.84;5072804;28;20091;-55
2020/12/18 01:31:42;;;;;;;1.40;0.80;;;;;;;10.51;86.97;99547.75;5073554;28;20413;-52
2020/12/18 01:34:29;;;;;;;0.75;0.40;;;;;;;10.47;86.90;99541.41;5086053;28;20044;-54
2020/12/18 01:37:15;;;;;;;1.00;0.40;;;;;;;10.45;86.59;99535.44;5078100;28;20401;-52
2020/12/18 01:40:02;;;;;;;0.45;0.45;;;;;;;10.43;86.43;99531.47;5069013;28;20053;-53
2020/12/18 01:42:49;;;;;;;1.42;0.60;;;;;;;10.40;86.50;99541.31;5072986;28;20131;-55
2020/12/18 01:45:36;;;;;;;0.80;0.60;;;;;;;10.38;86.51;99544.44;5076288;28;20157;-53
2020/12/18 01:48:22;;;;;;;2.20;0.55;;;;;;;10.37;86.48;99556.69;5085598;28;20047;-52
2020/12/18 01:51:12;;;;;;;0.70;0.60;;;;;;;10.37;86.62;99547.59;5092937;28;20044;-55
2020/12/18 01:53:58;;;;;;;0.45;0.43;;;;;;;10.34;86.35;99538.06;5073085;28;20397;-51
2020/12/18 01:56:46;;;;;;;1.52;0.40;;;;;;;10.33;86.46;99547.50;5085768;28;20417;-51
2020/12/18 01:59:35;;;;;;;1.55;0.55;;;;;;;10.31;86.32;99533.28;5072218;28;20166;-52
2020/12/18 02:02:22;;;;;;;1.88;0.60;;;;;;;10.30;86.30;99542.72;5071399;28;20041;-56
2020/12/18 02:05:08;;;;;;;2.25;0.52;;;;;;;10.26;86.09;99541.88;5082908;28;20036;-54
2020/12/18 02:08:03;;;;;;;2.50;0.50;;;;;;;10.22;86.03;99538.25;5090531;28;20040;-52
2020/12/18 02:10:50;;;;;;;0.52;0.40;;;;;;;10.19;86.04;99539.00;5052152;28;20395;-56
2020/12/18 02:13:36;;;;;;;2.75;0.47;;;;;;;10.15;86.00;99546.44;5078705;28;20045;-53
2020/12/18 02:16:23;;;;;;;1.63;0.50;;;;;;;10.10;85.88;99540.41;5052965;28;20410;-55
2020/12/18 02:19:10;;;;;;;1.10;0.60;;;;;;;10.05;85.79;99547.06;5072325;28;20131;-56
2020/12/18 02:22:13;;;;;;;2.53;0.50;;;;;;;9.99;85.93;99536.66;5072238;28;20037;-54
2020/12/18 02:25:07;;;;;;;9.48;0.90;;;;;;;9.91;85.75;99541.28;5070207;28;20086;-50
2020/12/18 02:27:54;;;;;;;0.45;0.40;;;;;;;9.85;85.87;99540.00;5080398;28;20086;-53
2020/12/18 02:30:41;;;;;;;1.58;0.77;;;;;;;9.79;85.87;99539.50;5071325;28;20040;-56
2020/12/18 02:33:30;;;;;;;1.02;0.43;;;;;;;9.79;85.64;99547.78;5079997;28;20044;-52
2020/12/18 02:36:28;;;;;;;1.70;0.50;;;;;;;9.74;85.84;99525.22;5071776;28;20049;-55
2020/12/18 02:39:14;;;;;;;1.42;0.70;;;;;;;9.72;85.86;99541.34;5062779;28;20048;-53
2020/12/18 02:42:01;;;;;;;0.40;0.40;;;;;;;9.73;85.79;99529.13;5073580;28;20122;-53
2020/12/18 02:44:48;;;;;;;3.25;0.82;;;;;;;9.71;85.81;99503.84;5084609;28;20169;-53
2020/12/18 02:47:35;;;;;;;3.22;0.60;;;;;;;9.70;85.80;99482.88;5073903;28;20047;-50
2020/12/18 02:50:22;;;;;;;1.95;0.80;;;;;;;9.67;85.62;99492.72;5065069;28;20119;-53
2020/12/18 02:53:14;;;;;;;2.17;0.60;;;;;;;9.64;85.58;99484.34;5047928;28;20063;-54
2020/12/18 02:56:00;;;;;;;1.73;0.57;;;;;;;9.61;85.36;99479.59;5087654;28;20040;-52
2020/12/18 02:58:47;;;;;;;2.28;0.60;;;;;;;9.55;85.48;99487.41;5078372;28;20045;-52
2020/12/18 03:01:34;;;;;;;1.48;0.73;;;;;;;9.53;85.47;99478.66;5075689;28;20037;-54
2020/12/18 03:04:20;;;;;;;2.92;0.63;;;;;;;9.50;85.29;99470.31;5059967;28;20056;-54
2020/12/18 03:07:07;;;;;;;3.08;0.80;;;;;;;9.45;85.50;99463.13;5061231;28;20044;-53
2020/12/18 03:09:53;;;;;;;3.25;0.60;;;;;;;9.45;85.28;99446.53;5060167;28;20041;-54
2020/12/18 03:12:40;;;;;;;1.70;0.80;;;;;;;9.46;85.41;99452.88;5083801;28;20117;-54
2020/12/18 03:15:26;;;;;;;3.65;1.25;;;;;;;9.41;85.30;99456.75;5091264;28;20044;-55
2020/12/18 03:18:13;;;;;;;3.40;0.77;;;;;;;9.39;85.28;99469.34;5083847;28;20448;-51
2020/12/18 03:21:00;;;;;;;10.52;0.90;;;;;;;9.35;85.42;99460.16;5075989;28;20098;-51
2020/12/18 03:23:46;;;;;;;1.90;0.65;;;;;;;9.33;85.30;99459.75;5065424;28;20075;-54
2020/12/18 03:26:33;;;;;;;1.27;0.80;;;;;;;9.31;85.22;99454.59;5077308;28;20057;-56
2020/12/18 03:29:19;;;;;;;1.85;0.77;;;;;;;9.27;85.10;99475.03;5052404;28;20045;-56
2020/12/18 03:32:06;;;;;;;4.25;1.33;;;;;;;9.27;85.14;99477.78;5092470;28;20170;-55
2020/12/18 03:34:53;;;;;;;1.38;1.25;;;;;;;9.27;84.89;99486.06;5094527;28;20032;-54
2020/12/18 03:37:39;;;;;;;3.78;1.10;;;;;;;9.23;84.74;99490.75;5077329;28;20123;-52
2020/12/18 03:40:26;;;;;;;2.88;1.00;;;;;;;9.22;84.75;99491.91;5065363;28;20058;-53
2020/12/18 03:43:12;;;;;;;3.47;0.70;;;;;;;9.22;84.63;99505.69;5094394;28;20126;-58
2020/12/18 03:45:59;;;;;;;3.45;1.15;;;;;;;9.17;84.60;99488.28;5095314;28;20467;-52
2020/12/18 03:48:46;;;;;;;3.78;1.02;;;;;;;9.14;84.50;99480.72;5094076;28;20572;-55
2020/12/18 03:51:32;;;;;;;6.25;1.20;;;;;;;9.08;84.65;99475.88;5085824;28;20052;-50
2020/12/18 03:54:19;;;;;;;4.35;0.63;;;;;;;9.01;84.49;99476.53;5083363;28;20117;-55
2020/12/18 03:57:05;;;;;;;3.53;0.75;;;;;;;9.00;84.59;99469.41;5069782;28;20099;-51
2020/12/18 03:59:52;;;;;;;2.22;0.77;;;;;;;8.99;84.44;99445.75;5078925;28;20095;-54
2020/12/18 04:02:39;;;;;;;3.80;0.82;;;;;;;8.99;84.65;99454.03;5093949;28;20161;-52
2020/12/18 04:05:25;;;;;;;3.38;1.08;;;;;;;8.98;84.69;99449.66;5077471;28;20131;-52
2020/12/18 04:08:12;;;;;;;3.80;0.90;;;;;;;8.98;84.54;99449.66;5079317;28;20123;-52
2020/12/18 04:10:59;;;;;;;3.40;1.05;;;;;;;8.99;84.60;99445.75;5077935;28;20170;-52
2020/12/18 04:13:45;;;;;;;5.63;1.00;;;;;;;8.99;84.72;99451.28;5061654;28;20414;-54
2020/12/18 04:16:32;;;;;;;3.33;1.13;;;;;;;9.01;84.54;99454.44;5056887;28;20056;-51
2020/12/18 04:19:18;;;;;;;2.53;0.98;;;;;;;9.02;84.36;99455.25;5095018;28;20052;-55
2020/12/18 04:22:06;;;;;;;5.47;1.38;;;;;;;8.99;84.49;99454.03;5073218;28;20053;-54
2020/12/18 04:24:52;;;;;;;7.40;1.00;;;;;;;8.97;84.66;99436.25;5079473;28;20044;-51
2020/12/18 04:27:39;;;;;;;2.60;1.20;;;;;;;8.95;84.60;99433.81;5076688;28;20048;-56
2020/12/18 04:30:26;;;;;;;3.17;0.80;;;;;;;8.94;84.56;99426.72;5068476;28;20048;-53
2020/12/18 04:33:12;;;;;;;7.30;0.90;;;;;;;8.94;84.65;99423.97;5073169;28;20198;-51
2020/12/18 04:35:59;;;;;;;7.07;1.60;;;;;;;8.91;84.71;99415.63;5087940;28;20044;-52
2020/12/18 04:38:46;;;;;;;9.20;3.50;;;;;;;8.90;84.56;99414.81;5061823;28;20131;-54
2020/12/18 04:41:33;;;;;;;11.55;3.28;;;;;;;8.92;84.71;99418.00;5078053;28;20123;-52
2020/12/18 04:44:20;;;;;;;11.48;1.90;;;;;;;8.96;84.33;99407.84;5076130;28;20111;-56
2020/12/18 04:47:09;;;;;;;9.10;1.88;;;;;;;9.00;84.57;99397.63;5053720;28;20102;-54
2020/12/18 04:49:56;;;;;;;13.15;2.70;;;;;;;9.02;84.50;99387.03;5062481;28;20063;-56
2020/12/18 04:52:45;;;;;;;14.05;2.60;;;;;;;9.06;84.65;99404.47;5074391;28;20071;-55
2020/12/18 04:55:34;;;;;;;12.15;3.20;;;;;;;9.09;85.07;99391.88;5081130;28;20044;-55
2020/12/18 04:58:25;;;;;;;13.90;2.70;;;;;;;9.11;84.81;99382.06;5093964;28;20040;-54
2020/12/18 05:01:18;;;;;;;11.73;2.83;;;;;;;9.12;84.76;99380.09;5092395;28;20123;-54
2020/12/18 05:04:06;;;;;;;13.57;1.83;;;;;;;9.14;84.89;99364.75;5081075;28;20154;-55
2020/12/18 05:06:52;;;;;;;16.77;2.45;;;;;;;9.15;84.71;99349.81;5093383;28;20089;-53
2020/12/18 05:09:41;;;;;;;11.85;2.10;;;;;;;9.14;84.69;99353.72;5059495;28;20162;-50
2020/12/18 05:12:28;;;;;;;12.43;2.65;;;;;;;9.14;85.09;99350.16;5085258;28;20047;-50
2020/12/18 05:15:14;;;;;;;12.77;2.35;;;;;;;9.11;85.03;99337.88;5067709;28;20523;-59
2020/12/18 05:18:01;;;;;;;13.55;1.90;;;;;;;9.09;85.07;99340.22;5073608;28;20123;-52
2020/12/18 05:20:48;;;;;;;11.77;2.22;;;;;;;9.09;85.14;99339.41;5057249;28;20135;-54
2020/12/18 05:23:43;;;;;;;14.55;2.78;;;;;;;9.06;85.61;99324.41;5069962;28;20630;-54
2020/12/18 05:26:30;;;;;;;9.18;2.42;;;;;;;9.06;85.19;99313.34;5087770;28;20116;-53
2020/12/18 05:29:17;;;;;;;18.13;3.92;;;;;;;9.05;85.61;99311.75;5085006;28;20052;-52
2020/12/18 05:32:04;;;;;;;13.27;2.65;;;;;;;9.04;85.66;99290.84;5076744;28;20033;-52
2020/12/18 05:34:51;;;;;;;13.52;2.00;;;;;;;9.01;85.88;99297.09;5086462;28;20098;-59
2020/12/18 05:37:39;;;;;;;4.13;1.25;;;;;;;9.02;85.92;99290.44;5078041;28;20128;-55
2020/12/18 05:40:29;;;;;;;13.70;2.28;;;;;;;9.02;86.11;99276.63;5081699;28;20103;-53
2020/12/18 05:43:16;;;;;;;15.98;2.13;;;;;;;9.02;85.94;99273.06;5072291;28;20179;-55
2020/12/18 05:46:23;;;;;;;10.05;1.60;;;;;;;9.00;86.25;99270.66;5051234;28;20491;-53
2020/12/18 05:49:10;;;;;;;7.22;2.35;;;;;;;9.01;86.29;99272.25;5066909;28;20622;-55
2020/12/18 05:51:57;;;;;;;14.15;1.90;;;;;;;9.02;86.06;99262.81;5081520;28;20143;-54
2020/12/18 05:54:44;;;;;;;15.65;2.60;;;;;;;9.04;86.14;99254.97;5068200;28;20119;-53
2020/12/18 05:57:39;;;;;;;4.85;1.50;;;;;;;9.05;86.24;99275.88;5052610;28;20048;-53
2020/12/18 06:00:26;;;;;;;7.10;1.35;;;;;;;9.09;86.27;99259.38;5070465;28;20059;-54
2020/12/18 06:03:19;;;;;;;5.60;1.45;;;;;;;9.13;86.01;99258.25;5080981;28;20143;-53
2020/12/18 06:06:10;;;;;;;5.93;0.88;;;;;;;9.17;86.02;99259.09;5052812;28;20403;-50
2020/12/18 06:08:59;;;;;;;6.25;0.93;;;;;;;9.22;85.90;99249.69;5083941;28;20170;-56
2020/12/18 06:11:47;;;;;;;8.25;1.35;;;;;;;9.28;85.76;99248.22;5070537;28;20044;-52
2020/12/18 06:14:34;;;;;;;3.72;0.70;;;;;;;9.36;85.96;99240.81;5066262;28;20498;-56
2020/12/18 06:17:27;;;;;;;3.80;0.75;;;;;;;9.43;85.84;99229.88;5093082;28;20123;-55
2020/12/18 06:20:15;;;;;;;2.25;0.52;;;;;;;9.47;85.78;99212.19;5075384;28;20043;-54
2020/12/18 06:23:05;;;;;;;4.03;1.17;;;;;;;9.46;85.85;99202.28;5070167;28;20044;-56
2020/12/18 06:25:54;;;;;;;6.18;2.40;;;;;;;9.44;86.19;99185.31;5071623;28;20040;-54
2020/12/18 06:28:41;;;;;;;5.40;2.08;;;;;;;9.44;86.25;99171.50;5074162;28;20060;-53
2020/12/18 06:31:32;;;;;;;5.07;1.30;;;;;;;9.44;86.46;99167.94;5093477;28;20056;-57
2020/12/18 06:34:37;;;;;;;1.15;0.60;;;;;;;9.42;87.18;99170.28;5068809;28;20417;-56
2020/12/18 06:37:31;;;;;;;4.28;0.60;;;;;;;9.42;87.25;99175.81;5084979;28;20037;-56
2020/12/18 06:40:30;;;;;;;4.50;0.60;;;;;;;9.40;87.52;99191.97;5087448;28;20119;-55
2020/12/18 06:43:33;;;;;;;4.85;0.50;;;;;;;9.41;87.91;99204.59;5081613;28;20139;-55
2020/12/18 06:46:19;;;;;;;4.22;0.38;;;;;;;9.44;87.71;99203.84;5062798;28;20401;-51
2020/12/18 06:49:06;;;;;;;0.95;0.40;;;;;;;9.46;87.91;99205.06;5069302;28;20186;-54
2020/12/18 06:51:53;;;;;;;3.35;0.68;;;;;;;9.50;87.79;99199.59;5058464;28;20052;-52
2020/12/18 06:54:56;;;;;;;3.25;0.45;;;;;;;9.52;88.05;99181.47;5065055;28;20189;-53
2020/12/18 06:57:42;;;;;;;0.52;0.50;;;;;;;9.53;87.95;99171.22;5075802;28;20036;-52
2020/12/18 07:00:31;;;;;;;2.55;0.52;;;;;;;9.56;87.98;99159.38;5091998;28;20044;-53
2020/12/18 07:03:36;;;;;;;1.27;0.30;;;;;;;9.57;88.51;99156.25;5082649;28;20199;-51
2020/12/18 07:06:31;;;;;;;5.65;0.63;;;;;;;9.59;88.07;99158.63;5072312;28;20119;-56
2020/12/18 07:09:20;;;;;;;6.55;1.10;;;;;;;9.61;88.24;99156.31;5056930;28;20558;-53
2020/12/18 07:12:07;;;;;;;6.00;0.85;;;;;;;9.60;88.37;99149.19;5071697;28;20044;-51
2020/12/18 07:14:56;;;;;;;7.05;1.40;;;;;;;9.61;88.37;99136.97;5052585;28;20552;-55
2020/12/18 07:17:46;;;;;;;5.93;1.48;;;;;;;9.63;88.53;99142.91;5070841;28;20428;-53
2020/12/18 07:20:33;;;;;;;3.53;1.13;;;;;;;9.64;88.49;99153.56;5069592;28;20052;-55
2020/12/18 07:23:21;;;;;;;3.55;0.40;;;;;;;9.68;88.74;99150.84;5071176;28;20048;-54
2020/12/18 07:26:10;;;;;;;1.73;0.60;;;;;;;9.70;88.68;99152.06;5075354;28;20046;-56
2020/12/18 07:28:56;;;;;;;2.30;0.50;;;;;;;9.73;88.81;99154.09;5091755;28;20050;-52
2020/12/18 07:31:43;;;;;;;3.90;1.00;;;;;;;9.76;88.68;99136.75;5089077;28;20123;-57
2020/12/18 07:34:29;;;;;;;4.68;0.90;;;;;;;9.79;88.80;99124.13;5060055;28;20049;-55
2020/12/18 07:37:16;;;;;;;6.30;1.02;;;;;;;9.80;88.68;99126.50;5066681;28;20506;-53
2020/12/18 07:40:05;;;;;;;3.45;0.50;;;;;;;9.82;88.83;99131.69;5067583;28;20193;-55
2020/12/18 07:42:51;;;;;;;3.22;0.60;;;;;;;9.82;88.73;99148.25;5060000;28;20048;-51
2020/12/18 07:45:40;;;;;;;1.85;0.47;;;;;;;9.82;88.75;99146.25;5079175;28;20599;-54
2020/12/18 07:48:34;;;;;;;3.88;0.77;;;;;;;9.86;88.97;99162.91;5095627;28;20044;-53
2020/12/18 07:51:21;;;;;;;2.35;0.90;;;;;;;9.88;88.76;99143.97;5077055;28;20056;-54
2020/12/18 07:54:08;;;;;;;2.17;0.80;;;;;;;9.92;88.62;99155.06;5053210;28;20053;-55
2020/12/18 07:57:05;;;;;;;2.28;0.93;;;;;;;9.94;89.08;99164.56;5056282;28;20052;-56
2020/12/18 08:00:04;;;;;;;4.40;1.55;;;;;;;9.99;88.88;99163.41;5067615;28;20039;-53
2020/12/18 08:02:52;;;;;;;2.60;0.73;;;;;;;10.01;89.00;99159.09;5078604;28;20476;-54
2020/12/18 08:05:43;;;;;;;0.40;0.30;;;;;;;10.03;88.79;99156.78;5085043;28;20408;-52
2020/12/18 08:08:31;;;;;;;4.35;0.70;;;;;;;10.09;89.04;99163.53;5073301;28;20046;-53
2020/12/18 08:11:19;;;;;;;0.57;0.28;;;;;;;10.11;89.17;99147.34;5084577;28;20044;-53
2020/12/18 08:14:06;;;;;;;1.65;0.32;;;;;;;10.15;89.14;99130.81;5093694;28;20044;-51
2020/12/18 08:16:53;;;;;;;2.55;1.02;;;;;;;10.17;89.06;99115.44;5074739;28;20521;-51
2020/12/18 08:19:39;;;;;;;0.82;0.30;;;;;;;10.16;89.32;99086.22;5054060;28;20055;-50
2020/12/18 08:22:29;;;;;;;1.98;0.40;;;;;;;10.16;89.36;99088.19;5053439;28;20124;-51
2020/12/18 08:25:18;;;;;;;0.60;0.35;;;;;;;10.14;89.18;99069.19;5054546;28;20108;-51
2020/12/18 08:28:06;;;;;;;0.63;0.25;;;;;;;10.15;89.49;99068.03;5055164;28;20403;-55
2020/12/18 08:30:54;;;;;;;1.13;0.60;;;;;;;10.17;89.47;99040.78;5073660;28;20044;-51
2020/12/18 08:33:50;;;;;;;1.08;0.50;;;;;;;10.16;89.94;99035.63;5073486;28;20043;-53
2020/12/18 08:36:42;;;;;;;1.80;0.65;;;;;;;10.16;89.96;99022.59;5066680;28;20121;-52
2020/12/18 08:39:30;;;;;;;4.03;1.13;;;;;;;10.15;89.77;99009.94;5079744;28;20158;-53
2020/12/18 08:42:17;;;;;;;2.83;0.80;;;;;;;10.15;89.77;98990.59;5057758;28;20047;-51
2020/12/18 08:45:04;;;;;;;3.85;1.85;;;;;;;10.14;89.71;98977.16;5063689;28;20053;-52
2020/12/18 08:47:51;;;;;;;3.20;0.70;;;;;;;10.11;89.82;98981.44;5058921;28;20097;-53
2020/12/18 08:50:38;;;;;;;3.40;0.63;;;;;;;10.10;90.11;98984.59;5073114;28;20123;-52
2020/12/18 08:53:32;;;;;;;2.28;0.40;;;;;;;10.07;90.25;98986.16;5072302;28;20048;-53
2020/12/18 08:56:21;;;;;;;2.28;0.70;;;;;;;10.09;90.17;98994.84;5072076;28;20049;-54
2020/12/18 08:59:07;;;;;;;1.65;0.47;;;;;;;10.09;90.16;98989.31;5089170;28;20416;-57
2020/12/18 09:01:54;;;;;;;2.72;0.52;;;;;;;10.09;90.25;98977.47;5080478;28;20033;-51
2020/12/18 09:04:41;;;;;;;3.25;0.88;;;;;;;10.08;90.27;98965.63;5052085;28;20128;-52
2020/12/18 09:07:41;;;;;;;2.83;0.50;;;;;;;10.09;90.54;98952.59;5067672;28;20057;-55
2020/12/18 09:10:40;;;;;;;2.42;0.68;;;;;;;10.09;90.50;98936.78;5066611;28;20081;-57
2020/12/18 09:13:29;;;;;;;4.45;0.68;;;;;;;10.09;90.40;98949.81;5069856;28;20052;-55
2020/12/18 09:16:23;;;;;;;1.45;0.57;;;;;;;10.09;90.33;98945.09;5056769;28;20562;-55
2020/12/18 09:19:12;;;;;;;5.10;1.40;;;;;;;10.11;90.38;98967.59;5063727;28;20128;-56
2020/12/18 09:22:05;;;;;;;5.80;1.25;;;;;;;10.12;90.96;98944.34;5064672;28;20060;-57
2020/12/18 09:25:03;;;;;;;8.27;0.90;;;;;;;10.14;90.83;98925.41;5070930;28;20036;-52
2020/12/18 09:27:57;;;;;;;9.27;1.40;;;;;;;10.17;90.65;98908.03;5070704;28;20044;-57
2020/12/18 09:30:50;;;;;;;4.05;0.90;;;;;;;10.20;90.78;98921.09;5071941;28;20057;-51
2020/12/18 09:33:38;;;;;;;5.15;1.15;;;;;;;10.21;90.70;98897.81;5064337;28;20044;-52
2020/12/18 09:36:24;;;;;;;8.65;3.40;;;;;;;10.21;90.78;98911.63;5075002;28;20079;-53
2020/12/18 09:39:11;;;;;;;7.70;1.52;;;;;;;10.20;90.57;98901.72;5063922;28;20533;-55
2020/12/18 09:41:58;;;;;;;8.68;1.80;;;;;;;10.20;90.79;98907.25;5070121;28;20072;-54
2020/12/18 09:44:45;;;;;;;9.85;1.20;;;;;;;10.20;90.64;98901.72;5075097;28;20130;-54
2020/12/18 09:47:31;;;;;;;2.75;0.82;;;;;;;10.22;90.88;98907.66;5072574;28;20512;-51
2020/12/18 09:50:18;;;;;;;5.72;1.73;;;;;;;10.25;90.81;98904.13;5049179;28;20120;-55
2020/12/18 09:53:08;;;;;;;3.72;0.80;;;;;;;10.31;91.04;98897.06;5043870;28;20072;-53
2020/12/18 09:55:55;;;;;;;7.53;1.20;;;;;;;10.36;91.07;98890.34;5047705;28;20102;-49
2020/12/18 09:58:44;;;;;;;6.88;1.00;;;;;;;10.40;90.67;98900.25;5050592;28;20049;-55
2020/12/18 10:01:30;;;;;;;5.22;1.02;;;;;;;10.45;90.86;98890.00;5044372;28;20042;-54
2020/12/18 10:04:17;;;;;;;4.63;0.93;;;;;;;10.48;90.64;98880.91;5051571;28;20053;-55
2020/12/18 10:07:03;;;;;;;9.45;1.75;;;;;;;10.52;90.73;98878.94;5044209;28;20515;-56
2020/12/18 10:09:50;;;;;;;5.65;0.88;;;;;;;10.55;90.65;98867.91;5044507;28;20051;-55
2020/12/18 10:12:37;;;;;;;2.03;1.23;;;;;;;10.60;90.53;98873.06;5047926;28;20053;-54
2020/12/18 10:15:24;;;;;;;2.22;0.75;;;;;;;10.67;90.39;98875.06;5032215;28;20128;-52
2020/12/18 10:18:11;;;;;;;7.53;1.00;;;;;;;10.71;90.27;98873.09;5032668;28;20052;-53
2020/12/18 10:20:58;;;;;;;6.47;0.80;;;;;;;10.74;90.09;98877.84;5016186;28;20084;-55
2020/12/18 10:23:45;;;;;;;3.38;1.00;;;;;;;10.78;90.08;98882.19;5043476;28;20570;-56
2020/12/18 10:26:31;;;;;;;5.70;1.33;;;;;;;10.80;90.19;98873.50;5048216;28;20498;-57
2020/12/18 10:29:18;;;;;;;5.57;1.08;;;;;;;10.83;90.01;98886.53;5027794;28;20045;-51
2020/12/18 10:32:05;;;;;;;12.38;1.70;;;;;;;10.85;89.98;98889.75;5052962;28;20220;-55
2020/12/18 10:34:51;;;;;;;14.20;2.45;;;;;;;10.83;89.75;98881.81;5068614;28;20041;-57
2020/12/18 10:37:38;;;;;;;12.35;2.00;;;;;;;10.82;90.06;98871.94;5044193;28;20063;-51
2020/12/18 10:40:25;;;;;;;8.70;1.65;;;;;;;10.86;89.99;98871.94;5048235;28;20110;-56
2020/12/18 10:43:12;;;;;;;11.32;1.85;;;;;;;10.88;89.97;98883.41;5042632;28;20049;-56
2020/12/18 10:45:59;;;;;;;14.73;2.03;;;;;;;10.92;89.86;98878.66;5016197;28;20049;-55
2020/12/18 10:48:46;;;;;;;7.68;1.73;;;;;;;10.94;89.95;98882.63;5038566;28;20075;-56
2020/12/18 10:51:38;;;;;;;13.73;1.92;;;;;;;10.99;90.09;98870.38;5049835;28;20122;-53
2020/12/18 10:54:24;;;;;;;10.35;2.25;;;;;;;11.04;89.89;98858.91;5064560;28;20060;-54
2020/12/18 10:57:26;;;;;;;8.43;1.23;;;;;;;11.10;89.96;98860.09;5089025;28;20071;-55
2020/12/18 11:00:12;;;;;;;7.25;1.50;;;;;;;11.16;89.78;98853.00;5090192;28;20394;-51
2020/12/18 11:02:59;;;;;;;4.80;1.73;;;;;;;11.22;89.82;98854.19;5049577;28;20049;-54
2020/12/18 11:05:46;;;;;;;3.85;0.80;;;;;;;11.31;89.67;98848.22;5050073;28;20060;-53
2020/12/18 11:08:33;;;;;;;2.60;0.40;;;;;;;11.44;89.37;98843.88;5050117;28;20049;-53
2020/12/18 11:11:20;;;;;;;1.00;0.28;;;;;;;11.66;89.11;98858.50;5069335;28;20074;-52
2020/12/18 11:14:08;;;;;;;0.77;0.30;;;;;;;11.91;89.01;98848.22;5070775;28;20498;-55
2020/12/18 11:16:55;;;;;;;1.80;0.28;;;;;;;12.19;88.43;98839.78;5071149;28;20409;-54
2020/12/18 11:19:42;;;;;;;0.35;0.30;;;;;;;12.39;88.08;98829.00;5054425;28;20132;-50
2020/12/18 11:22:28;;;;;;;1.05;0.47;;;;;;;12.60;87.90;98824.13;5054518;28;20045;-54
2020/12/18 11:25:15;;;;;;;1.75;0.60;;;;;;;12.79;87.64;98826.41;5067574;28;20186;-51
2020/12/18 11:28:01;;;;;;;2.35;0.40;;;;;;;12.89;87.08;98822.00;5072957;28;20398;-53
2020/12/18 11:30:49;;;;;;;0.20;0.20;;;;;;;12.89;86.48;98808.09;5072937;28;20125;-53
2020/12/18 11:33:35;;;;;;;3.05;1.00;;;;;;;12.83;85.65;98793.84;5074740;28;20520;-50
2020/12/18 11:36:22;;;;;;;0.10;0.10;;;;;;;12.79;84.92;98776.41;5067844;28;20517;-54
2020/12/18 11:39:09;;;;;;;0.45;0.20;;;;;;;12.78;84.17;98774.84;5074715;28;20143;-53
2020/12/18 11:41:56;;;;;;;0.75;0.70;;;;;;;12.76;84.30;98771.66;5072903;28;20190;-53
2020/12/18 11:44:43;;;;;;;1.85;0.82;;;;;;;12.76;84.02;98763.34;5074675;28;20098;-52
2020/12/18 11:47:29;;;;;;;1.35;0.00;;;;;;;12.77;83.75;98781.59;5073542;28;20041;-52
2020/12/18 11:50:16;;;;;;;1.02;0.40;;;;;;;12.80;83.25;98782.75;5065763;28;20040;-51
2020/12/18 11:53:04;;;;;;;1.65;0.28;;;;;;;12.81;83.17;98779.56;5071962;28;20406;-53
2020/12/18 11:55:51;;;;;;;1.27;0.20;;;;;;;12.81;83.00;98787.13;5075065;28;20040;-53
2020/12/18 11:58:38;;;;;;;3.95;0.30;;;;;;;12.80;83.18;98800.22;5093831;28;20127;-50
2020/12/18 12:01:24;;;;;;;0.65;0.52;;;;;;;12.86;83.25;98808.13;5093686;28;20187;-53
2020/12/18 12:04:11;;;;;;;0.47;0.22;;;;;;;12.95;83.07;98822.31;5093127;28;20131;-54
2020/12/18 12:06:58;;;;;;;0.15;0.10;;;;;;;13.05;82.72;98821.47;5086122;28;20045;-48
2020/12/18 12:09:44;;;;;;;1.65;0.30;;;;;;;13.11;82.35;98826.19;5081652;28;20066;-53
2020/12/18 12:12:31;;;;;;;1.00;0.20;;;;;;;13.14;81.91;98821.81;5081283;28;20109;-52
2020/12/18 12:15:17;;;;;;;4.20;0.50;;;;;;;13.16;81.75;98816.63;5088342;28;20048;-53
2020/12/18 12:18:05;;;;;;;2.72;0.40;;;;;;;13.16;81.79;98813.84;5081367;28;20480;-52
2020/12/18 12:20:51;;;;;;;3.35;1.27;;;;;;;13.13;82.06;98817.47;5090050;28;20524;-53
2020/12/18 12:23:38;;;;;;;0.98;0.50;;;;;;;13.04;82.07;98822.66;5090012;28;20036;-53
2020/12/18 12:26:25;;;;;;;2.78;1.45;;;;;;;12.97;82.21;98826.28;5070194;28;20047;-53
2020/12/18 12:29:11;;;;;;;7.50;2.08;;;;;;;12.94;82.19;98829.09;5083396;28;20037;-54
2020/12/18 12:31:58;;;;;;;5.18;0.75;;;;;;;12.91;82.12;98821.56;5074079;28;20056;-52
2020/12/18 12:34:44;;;;;;;2.50;0.80;;;;;;;12.88;81.47;98833.47;5085086;28;20054;-51
2020/12/18 12:37:31;;;;;;;7.40;1.33;;;;;;;12.84;81.36;98825.97;5074326;28;20047;-53
2020/12/18 12:40:22;;;;;;;6.72;1.20;;;;;;;12.76;81.38;98826.44;5069373;28;20052;-52
2020/12/18 12:43:08;;;;;;;7.60;1.83;;;;;;;12.67;81.25;98835.22;5065027;28;20186;-51
2020/12/18 12:45:55;;;;;;;5.90;1.23;;;;;;;12.59;81.04;98811.47;5052725;28;20132;-52
2020/12/18 12:48:43;;;;;;;5.15;1.40;;;;;;;12.54;81.04;98817.44;5081718;28;20055;-53
2020/12/18 12:51:29;;;;;;;5.20;1.30;;;;;;;12.47;80.31;98847.22;5093015;28;20194;-51
2020/12/18 12:54:16;;;;;;;5.13;1.20;;;;;;;12.44;80.52;98832.16;5072966;28;20044;-52
2020/12/18 12:57:02;;;;;;;11.00;1.95;;;;;;;12.40;80.21;98834.16;5072468;28;20135;-51
2020/12/18 12:59:49;;;;;;;7.60;2.10;;;;;;;12.39;80.21;98840.88;5081631;28;20068;-53
2020/12/18 13:02:36;;;;;;;20.30;3.65;;;;;;;12.38;80.09;98836.53;5062787;28;20036;-52
2020/12/18 13:05:22;;;;;;;14.68;2.15;;;;;;;12.37;79.88;98821.06;5079593;28;20162;-51
2020/12/18 13:08:09;;;;;;;13.43;3.08;;;;;;;12.38;80.13;98803.25;5074809;28;20147;-54
2020/12/18 13:10:59;;;;;;;8.40;1.70;;;;;;;12.35;79.94;98801.28;5078664;28;20060;-51
2020/12/18 13:13:46;;;;;;;9.77;1.73;;;;;;;12.34;79.99;98810.78;5086524;28;20252;-50
2020/12/18 13:16:33;;;;;;;5.78;1.48;;;;;;;12.30;79.83;98826.66;5073547;28;20059;-52